Time;durP1;ratioP1;P1;durP2;ratioP2;P2;SDS_P1;SDS_P2;PMS_P1;PMS_P2;Temp;Humidity;BMP_temperature;BMP_pressure;BME280_temperature;BME280_humidity;BME280_pressure;Samples;Min_cycle;Max_cycle;Signal;HPM_P1;HPM_P2
2023/08/18 00:01:23;;;;;;;2.20;2.00;;;;;;;;;;5076006;28;20017;-21
2023/08/18 00:03:50;;;;;;;2.25;2.08;;;;;;;;;;5075473;28;20064;-29
2023/08/18 00:06:16;;;;;;;4.53;1.90;;;;;;;;;;5075994;28;20024;-26
2023/08/18 00:08:42;;;;;;;3.03;2.10;;;;;;;;;;5075840;28;20333;-19
2023/08/18 00:11:08;;;;;;;2.22;2.05;;;;;;;;;;5075828;28;20370;-23
2023/08/18 00:13:34;;;;;;;2.33;2.08;;;;;;;;;;5075670;28;20424;-23
2023/08/18 00:16:00;;;;;;;2.47;2.35;;;;;;;;;;5075758;28;20381;-24
2023/08/18 00:18:27;;;;;;;4.82;2.08;;;;;;;;;;5075428;28;20040;-24
2023/08/18 00:20:53;;;;;;;2.78;2.40;;;;;;;;;;5075368;28;20024;-23
2023/08/18 00:23:19;;;;;;;1.85;1.75;;;;;;;;;;5075424;28;20360;-22
2023/08/18 00:25:45;;;;;;;2.10;1.80;;;;;;;;;;5075327;28;20028;-20
2023/08/18 00:28:12;;;;;;;3.42;2.15;;;;;;;;;;5075280;28;20055;-22
2023/08/18 00:30:38;;;;;;;4.82;2.70;;;;;;;;;;5075156;28;20035;-22
2023/08/18 00:33:04;;;;;;;2.60;2.10;;;;;;;;;;5075026;28;20024;-25
2023/08/18 00:35:30;;;;;;;2.67;2.47;;;;;;;;;;5075111;28;20024;-24
2023/08/18 00:37:56;;;;;;;2.20;2.00;;;;;;;;;;5075106;28;20028;-22
2023/08/18 00:40:23;;;;;;;3.38;2.50;;;;;;;;;;5075047;28;20082;-25
2023/08/18 00:42:49;;;;;;;2.65;2.45;;;;;;;;;;5075210;28;20104;-22
2023/08/18 00:45:15;;;;;;;2.88;2.20;;;;;;;;;;5075012;28;20056;-22
2023/08/18 00:47:42;;;;;;;2.30;2.15;;;;;;;;;;5074888;28;20116;-24
2023/08/18 00:50:10;;;;;;;2.25;2.15;;;;;;;;;;5074907;28;20024;-21
2023/08/18 00:52:37;;;;;;;2.22;2.13;;;;;;;;;;5074688;28;20052;-22
2023/08/18 00:55:03;;;;;;;2.25;2.15;;;;;;;;;;5074848;28;20086;-24
2023/08/18 00:57:29;;;;;;;1.92;1.83;;;;;;;;;;5074862;28;20028;-22
2023/08/18 00:59:56;;;;;;;2.65;2.45;;;;;;;;;;5075047;28;20109;-23
2023/08/18 01:02:22;;;;;;;2.95;2.38;;;;;;;;;;5075063;28;20090;-29
2023/08/18 01:04:48;;;;;;;2.75;2.47;;;;;;;;;;5074742;28;20040;-21
2023/08/18 01:07:14;;;;;;;2.85;2.17;;;;;;;;;;5075175;28;20020;-29
2023/08/18 01:09:40;;;;;;;2.22;2.13;;;;;;;;;;5074920;28;20351;-22
2023/08/18 01:12:19;;;;;;;4.20;2.00;;;;;;;;;;5074804;28;20031;-23
2023/08/18 01:14:55;;;;;;;2.80;2.30;;;;;;;;;;5074632;28;20028;-22
2023/08/18 01:17:41;;;;;;;2.28;2.03;;;;;;;;;;5074858;28;20094;-22
2023/08/18 01:20:08;;;;;;;2.42;2.25;;;;;;;;;;5074470;28;20016;-21
2023/08/18 01:22:35;;;;;;;2.70;2.30;;;;;;;;;;5074720;28;20031;-24
2023/08/18 01:25:02;;;;;;;4.43;2.33;;;;;;;;;;5074787;28;20029;-23
2023/08/18 01:27:31;;;;;;;4.18;2.28;;;;;;;;;;5074411;28;20502;-23
2023/08/18 01:29:58;;;;;;;2.35;1.80;;;;;;;;;;5074456;28;20451;-24
2023/08/18 01:32:27;;;;;;;2.55;2.35;;;;;;;;;;5074341;28;20028;-24
2023/08/18 01:34:53;;;;;;;3.92;2.47;;;;;;;;;;5074423;28;20024;-22
2023/08/18 01:37:20;;;;;;;2.30;2.20;;;;;;;;;;5078711;28;20497;-20
2023/08/18 01:39:47;;;;;;;2.30;2.10;;;;;;;;;;5079049;28;20039;-24
2023/08/18 01:42:13;;;;;;;2.22;2.05;;;;;;;;;;5078426;28;20134;-25
2023/08/18 01:44:39;;;;;;;2.95;2.72;;;;;;;;;;5079165;28;20017;-24
2023/08/18 01:47:06;;;;;;;2.55;2.35;;;;;;;;;;5078593;28;20028;-20
2023/08/18 01:49:32;;;;;;;2.40;1.92;;;;;;;;;;5078567;28;20425;-24
2023/08/18 01:51:58;;;;;;;2.53;2.30;;;;;;;;;;5078158;28;20035;-24
2023/08/18 01:54:24;;;;;;;2.20;2.00;;;;;;;;;;5060474;28;20033;-23
2023/08/18 01:56:50;;;;;;;5.63;2.08;;;;;;;;;;5078216;28;20029;-21
2023/08/18 01:59:16;;;;;;;2.45;2.25;;;;;;;;;;5078145;28;20024;-22
2023/08/18 02:01:42;;;;;;;2.88;2.47;;;;;;;;;;5077933;28;20029;-21
2023/08/18 02:04:08;;;;;;;2.55;1.80;;;;;;;;;;5077837;28;20049;-19
2023/08/18 02:06:35;;;;;;;2.28;2.13;;;;;;;;;;5077956;28;20055;-20
2023/08/18 02:09:01;;;;;;;2.70;2.00;;;;;;;;;;5077909;28;20021;-22
2023/08/18 02:11:27;;;;;;;1.98;1.80;;;;;;;;;;5078166;28;20386;-24
2023/08/18 02:13:53;;;;;;;2.28;2.08;;;;;;;;;;5077914;28;20055;-21
2023/08/18 02:16:19;;;;;;;2.22;1.60;;;;;;;;;;5077773;28;20085;-23
2023/08/18 02:18:47;;;;;;;4.13;2.38;;;;;;;;;;5078008;28;20025;-22
2023/08/18 02:21:14;;;;;;;2.75;2.20;;;;;;;;;;5077593;28;20035;-20
2023/08/18 02:23:41;;;;;;;3.38;2.30;;;;;;;;;;5077573;28;20017;-24
2023/08/18 02:26:07;;;;;;;2.53;2.03;;;;;;;;;;5077868;28;20036;-22
2023/08/18 02:28:33;;;;;;;2.00;1.90;;;;;;;;;;5077570;28;20032;-25
2023/08/18 02:31:04;;;;;;;2.30;2.17;;;;;;;;;;5077517;28;20028;-23
2023/08/18 02:33:31;;;;;;;3.58;2.55;;;;;;;;;;5077405;28;20355;-22
2023/08/18 02:35:58;;;;;;;2.20;2.00;;;;;;;;;;5077444;28;20029;-22
2023/08/18 02:38:25;;;;;;;2.55;2.35;;;;;;;;;;5077357;28;20111;-25
2023/08/18 02:40:52;;;;;;;2.22;2.03;;;;;;;;;;5077612;28;20025;-22
2023/08/18 02:43:18;;;;;;;2.40;2.30;;;;;;;;;;5077149;28;20056;-24
2023/08/18 02:45:45;;;;;;;2.33;2.20;;;;;;;;;;5078338;28;20049;-21
2023/08/18 02:48:12;;;;;;;2.42;2.20;;;;;;;;;;5075875;28;20045;-19
2023/08/18 02:50:39;;;;;;;2.10;1.92;;;;;;;;;;5077098;28;20032;-20
2023/08/18 02:53:06;;;;;;;2.03;1.80;;;;;;;;;;5077270;28;20057;-23
2023/08/18 02:55:34;;;;;;;2.33;2.13;;;;;;;;;;5076998;28;20098;-26
2023/08/18 02:58:01;;;;;;;2.22;2.08;;;;;;;;;;5077306;28;20021;-22
2023/08/18 03:00:27;;;;;;;2.22;1.98;;;;;;;;;;5076982;28;20397;-24
2023/08/18 03:02:53;;;;;;;2.53;2.33;;;;;;;;;;5076871;28;20104;-23
2023/08/18 03:05:20;;;;;;;1.73;1.63;;;;;;;;;;5076751;28;20498;-22
2023/08/18 03:07:46;;;;;;;2.42;2.22;;;;;;;;;;5076897;28;20421;-23
2023/08/18 03:10:12;;;;;;;1.90;1.80;;;;;;;;;;5076835;28;20366;-21
2023/08/18 03:12:38;;;;;;;2.08;1.92;;;;;;;;;;5076602;28;20029;-21
2023/08/18 03:15:05;;;;;;;2.35;2.15;;;;;;;;;;5076764;28;20146;-23
2023/08/18 03:17:31;;;;;;;2.25;2.10;;;;;;;;;;5076674;28;20455;-22
2023/08/18 03:19:57;;;;;;;2.75;2.55;;;;;;;;;;5058991;28;20455;-27
2023/08/18 03:22:24;;;;;;;2.38;2.20;;;;;;;;;;5076538;28;20398;-24
2023/08/18 03:24:50;;;;;;;2.25;2.08;;;;;;;;;;5076526;28;20058;-24
2023/08/18 03:27:16;;;;;;;1.88;1.77;;;;;;;;;;5076481;28;20055;-21
2023/08/18 03:29:42;;;;;;;2.60;2.40;;;;;;;;;;5076438;28;20063;-21
2023/08/18 03:32:08;;;;;;;2.05;1.70;;;;;;;;;;5076488;28;20443;-20
2023/08/18 03:34:34;;;;;;;2.20;2.00;;;;;;;;;;5076217;28;20032;-24
2023/08/18 03:37:00;;;;;;;2.28;2.17;;;;;;;;;;5076497;28;20065;-24
2023/08/18 03:39:26;;;;;;;2.15;1.95;;;;;;;;;;5076174;28;20444;-27
2023/08/18 03:41:53;;;;;;;2.20;2.00;;;;;;;;;;5058501;28;20052;-27
2023/08/18 03:44:19;;;;;;;2.55;2.35;;;;;;;;;;5076379;28;20493;-23
2023/08/18 03:46:45;;;;;;;2.85;2.55;;;;;;;;;;5075958;28;20055;-24
2023/08/18 03:49:11;;;;;;;2.35;2.15;;;;;;;;;;5076035;28;20483;-20
2023/08/18 03:51:37;;;;;;;2.40;2.20;;;;;;;;;;5075929;28;20028;-25
2023/08/18 03:54:03;;;;;;;2.20;2.10;;;;;;;;;;5076001;28;20054;-27
2023/08/18 03:56:29;;;;;;;2.10;2.00;;;;;;;;;;5076085;28;20100;-22
2023/08/18 03:58:55;;;;;;;2.50;2.30;;;;;;;;;;5075322;28;20095;-22
2023/08/18 04:01:22;;;;;;;1.98;1.85;;;;;;;;;;5075794;28;20182;-23
2023/08/18 04:03:49;;;;;;;2.33;2.13;;;;;;;;;;5075653;28;20036;-24
2023/08/18 04:06:16;;;;;;;2.70;1.92;;;;;;;;;;5075608;28;20035;-22
2023/08/18 04:08:43;;;;;;;2.20;2.00;;;;;;;;;;5075595;28;20036;-25
2023/08/18 04:11:10;;;;;;;2.22;1.90;;;;;;;;;;5075344;28;20035;-22
2023/08/18 04:13:36;;;;;;;3.72;2.67;;;;;;;;;;5075097;28;20454;-24
2023/08/18 04:16:02;;;;;;;4.10;2.00;;;;;;;;;;5075148;28;20035;-24
2023/08/18 04:18:29;;;;;;;2.13;2.03;;;;;;;;;;5075534;28;20025;-25
2023/08/18 04:20:56;;;;;;;2.00;1.90;;;;;;;;;;5075713;28;20081;-25
2023/08/18 04:23:23;;;;;;;1.88;1.77;;;;;;;;;;5075346;28;20036;-24
2023/08/18 04:25:49;;;;;;;2.70;2.03;;;;;;;;;;5057544;28;20039;-23
2023/08/18 04:28:15;;;;;;;2.00;1.90;;;;;;;;;;5075128;28;20463;-25
2023/08/18 04:30:45;;;;;;;2.13;2.03;;;;;;;;;;5075327;28;20036;-20
2023/08/18 04:33:11;;;;;;;2.10;1.92;;;;;;;;;;5074852;28;20475;-27
2023/08/18 04:35:37;;;;;;;4.93;2.15;;;;;;;;;;5075220;28;20028;-23
2023/08/18 04:38:03;;;;;;;2.88;2.58;;;;;;;;;;5074975;28;20032;-24
2023/08/18 04:40:29;;;;;;;1.67;1.58;;;;;;;;;;5074964;28;20025;-21
2023/08/18 04:42:55;;;;;;;3.10;2.20;;;;;;;;;;5074497;28;20032;-21
2023/08/18 04:45:22;;;;;;;2.97;2.03;;;;;;;;;;5074991;28;20024;-24
2023/08/18 04:47:48;;;;;;;2.40;2.20;;;;;;;;;;5074510;28;20032;-25
2023/08/18 04:50:15;;;;;;;2.58;2.30;;;;;;;;;;5074677;28;20025;-26
2023/08/18 04:52:41;;;;;;;2.50;2.30;;;;;;;;;;5074711;28;20047;-25
2023/08/18 04:55:07;;;;;;;1.90;1.80;;;;;;;;;;5074645;28;20328;-26
2023/08/18 04:57:33;;;;;;;1.83;1.73;;;;;;;;;;5074531;28;20376;-23
2023/08/18 04:59:59;;;;;;;2.63;2.30;;;;;;;;;;5074382;28;20021;-25
2023/08/18 05:02:26;;;;;;;2.30;2.10;;;;;;;;;;5074308;28;20028;-25
2023/08/18 05:04:53;;;;;;;2.25;2.05;;;;;;;;;;5074212;28;20041;-23
2023/08/18 05:07:20;;;;;;;4.15;2.30;;;;;;;;;;5074492;28;20029;-26
2023/08/18 05:09:46;;;;;;;3.60;2.33;;;;;;;;;;5073751;28;20389;-21
2023/08/18 05:12:13;;;;;;;2.67;2.47;;;;;;;;;;5074089;28;20352;-23
2023/08/18 05:14:39;;;;;;;2.42;2.22;;;;;;;;;;5074447;28;20024;-21
2023/08/18 05:17:05;;;;;;;4.82;2.42;;;;;;;;;;5074243;28;20032;-21
2023/08/18 05:19:31;;;;;;;4.18;2.28;;;;;;;;;;5074435;28;20333;-25
2023/08/18 05:21:57;;;;;;;3.60;2.50;;;;;;;;;;5074614;28;20475;-25
2023/08/18 05:24:24;;;;;;;7.32;3.08;;;;;;;;;;5074525;28;20126;-22
2023/08/18 05:26:50;;;;;;;4.30;2.00;;;;;;;;;;5074292;28;20424;-24
2023/08/18 05:29:16;;;;;;;3.47;3.17;;;;;;;;;;5074818;28;20024;-24
2023/08/18 05:31:45;;;;;;;2.20;2.05;;;;;;;;;;5074439;28;20390;-24
2023/08/18 05:34:11;;;;;;;4.32;2.70;;;;;;;;;;5074691;28;20393;-24
2023/08/18 05:36:37;;;;;;;8.70;2.88;;;;;;;;;;5074299;28;20044;-26
2023/08/18 05:39:04;;;;;;;5.72;2.53;;;;;;;;;;5074243;28;20105;-23
2023/08/18 05:41:31;;;;;;;12.15;2.67;;;;;;;;;;5056649;28;20024;-24
2023/08/18 05:43:57;;;;;;;9.77;2.45;;;;;;;;;;5074080;28;20101;-26
2023/08/18 05:46:23;;;;;;;12.88;2.63;;;;;;;;;;5056492;28;20031;-28
2023/08/18 05:48:49;;;;;;;3.47;2.47;;;;;;;;;;5074076;28;20100;-25
2023/08/18 05:51:15;;;;;;;2.65;2.40;;;;;;;;;;5074503;28;20025;-27
2023/08/18 05:53:41;;;;;;;3.65;2.15;;;;;;;;;;5074004;28;20103;-25
2023/08/18 05:56:08;;;;;;;5.15;2.55;;;;;;;;;;5074017;28;20048;-22
2023/08/18 05:58:34;;;;;;;5.78;2.33;;;;;;;;;;5073840;28;20040;-27
2023/08/18 06:01:00;;;;;;;5.70;2.50;;;;;;;;;;5074076;28;20021;-25
2023/08/18 06:03:26;;;;;;;4.38;2.22;;;;;;;;;;5055923;28;20028;-22
2023/08/18 06:05:52;;;;;;;2.45;2.25;;;;;;;;;;5073982;28;20089;-25
2023/08/18 06:08:18;;;;;;;5.35;2.05;;;;;;;;;;5073764;28;20032;-26
2023/08/18 06:10:46;;;;;;;3.78;2.80;;;;;;;;;;5073977;28;20036;-24
2023/08/18 06:13:12;;;;;;;5.53;2.42;;;;;;;;;;5073922;28;20466;-22
2023/08/18 06:15:39;;;;;;;7.60;2.45;;;;;;;;;;5074004;28;20324;-21
2023/08/18 06:18:05;;;;;;;3.83;2.50;;;;;;;;;;5073683;28;20036;-20
2023/08/18 06:20:31;;;;;;;2.70;2.33;;;;;;;;;;5073716;28;20092;-22
2023/08/18 06:22:57;;;;;;;3.85;2.50;;;;;;;;;;5076724;28;20024;-23
2023/08/18 06:25:23;;;;;;;5.55;2.38;;;;;;;;;;5077294;28;20021;-24
2023/08/18 06:27:50;;;;;;;4.00;2.30;;;;;;;;;;5077252;28;20021;-24
2023/08/18 06:30:16;;;;;;;6.35;2.70;;;;;;;;;;5077443;28;20028;-22
2023/08/18 06:32:43;;;;;;;6.18;2.38;;;;;;;;;;5077028;28;20033;-22
2023/08/18 06:35:09;;;;;;;2.50;2.30;;;;;;;;;;5077324;28;20036;-29
2023/08/18 06:37:35;;;;;;;5.22;2.28;;;;;;;;;;5077522;28;20082;-26
2023/08/18 06:40:02;;;;;;;6.07;2.45;;;;;;;;;;5077460;28;20409;-21
2023/08/18 06:42:29;;;;;;;3.28;2.97;;;;;;;;;;5076992;28;20020;-21
2023/08/18 06:44:55;;;;;;;2.83;2.58;;;;;;;;;;5077097;28;20028;-20
2023/08/18 06:47:21;;;;;;;4.05;2.55;;;;;;;;;;5077074;28;20021;-20
2023/08/18 06:49:47;;;;;;;3.13;2.47;;;;;;;;;;5059379;28;20032;-23
2023/08/18 06:52:13;;;;;;;2.42;2.17;;;;;;;;;;5059449;28;20109;-26
2023/08/18 06:54:39;;;;;;;2.72;2.33;;;;;;;;;;5077193;28;20166;-25
2023/08/18 06:57:05;;;;;;;3.95;2.92;;;;;;;;;;5076917;28;20048;-24
2023/08/18 06:59:32;;;;;;;3.17;2.38;;;;;;;;;;5076725;28;20024;-24
2023/08/18 07:01:58;;;;;;;5.95;3.40;;;;;;;;;;5076614;28;20030;-22
2023/08/18 07:04:24;;;;;;;3.20;3.00;;;;;;;;;;5076702;28;20038;-20
2023/08/18 07:06:50;;;;;;;6.82;2.78;;;;;;;;;;5076863;28;20035;-23
2023/08/18 07:09:16;;;;;;;2.90;2.70;;;;;;;;;;5058899;28;20055;-23
2023/08/18 07:11:42;;;;;;;3.08;2.67;;;;;;;;;;5076681;28;20354;-24
2023/08/18 07:14:08;;;;;;;2.70;2.22;;;;;;;;;;5076678;28;20093;-24
2023/08/18 07:16:34;;;;;;;6.07;2.67;;;;;;;;;;5076321;28;20095;-24
2023/08/18 07:19:00;;;;;;;8.50;2.67;;;;;;;;;;5076633;28;20052;-22
2023/08/18 07:21:27;;;;;;;10.05;3.30;;;;;;;;;;5076260;28;20356;-25
2023/08/18 07:23:53;;;;;;;7.15;2.90;;;;;;;;;;5076388;28;20355;-22
2023/08/18 07:26:19;;;;;;;6.78;2.97;;;;;;;;;;5076419;28;20089;-26
2023/08/18 07:28:45;;;;;;;9.52;2.90;;;;;;;;;;5076127;28;20363;-24
2023/08/18 07:31:11;;;;;;;11.57;3.20;;;;;;;;;;5076321;28;20028;-26
2023/08/18 07:33:37;;;;;;;3.42;2.80;;;;;;;;;;5075133;28;20068;-24
2023/08/18 07:36:04;;;;;;;3.95;3.53;;;;;;;;;;5075938;28;20107;-26
2023/08/18 07:38:36;;;;;;;7.20;2.75;;;;;;;;;;5076075;28;20407;-21
2023/08/18 07:41:02;;;;;;;6.45;2.42;;;;;;;;;;5075759;28;20032;-23
2023/08/18 07:43:29;;;;;;;3.45;2.30;;;;;;;;;;5075685;28;20111;-22
2023/08/18 07:45:56;;;;;;;7.40;2.63;;;;;;;;;;5075755;28;20039;-23
2023/08/18 07:48:22;;;;;;;4.32;2.78;;;;;;;;;;5076030;28;20051;-25
2023/08/18 07:50:48;;;;;;;2.90;2.60;;;;;;;;;;5075800;28;20104;-21
2023/08/18 07:53:15;;;;;;;8.38;2.60;;;;;;;;;;5075430;28;20024;-24
2023/08/18 07:55:41;;;;;;;7.85;2.72;;;;;;;;;;5075651;28;20028;-21
2023/08/18 07:58:07;;;;;;;2.83;2.53;;;;;;;;;;5075805;28;20024;-23
2023/08/18 08:00:33;;;;;;;7.78;2.35;;;;;;;;;;5075866;28;20095;-24
2023/08/18 08:03:00;;;;;;;4.47;2.35;;;;;;;;;;5075370;28;20031;-24
2023/08/18 08:05:26;;;;;;;2.63;2.22;;;;;;;;;;5075124;28;20169;-27
2023/08/18 08:07:52;;;;;;;4.90;3.33;;;;;;;;;;5075937;28;20346;-24
2023/08/18 08:10:19;;;;;;;7.60;2.83;;;;;;;;;;5075854;28;20123;-24
2023/08/18 08:12:46;;;;;;;6.78;2.45;;;;;;;;;;5075459;28;20111;-23
2023/08/18 08:15:16;;;;;;;5.97;2.38;;;;;;;;;;5057561;28;20458;-24
2023/08/18 08:17:42;;;;;;;7.88;2.95;;;;;;;;;;5075435;28;20038;-22
2023/08/18 08:20:18;;;;;;;4.07;2.53;;;;;;;;;;5075398;28;20024;-21
2023/08/18 08:22:45;;;;;;;10.18;3.08;;;;;;;;;;5075393;28;20020;-24
2023/08/18 08:25:12;;;;;;;4.15;2.40;;;;;;;;;;5075132;28;20028;-24
2023/08/18 08:27:39;;;;;;;5.18;2.95;;;;;;;;;;5057080;28;20035;-23
2023/08/18 08:30:07;;;;;;;2.33;2.13;;;;;;;;;;5075003;28;20351;-25
2023/08/18 08:32:33;;;;;;;3.72;3.05;;;;;;;;;;5075297;28;20028;-23
2023/08/18 08:34:59;;;;;;;4.45;2.72;;;;;;;;;;5074917;28;20031;-29
2023/08/18 08:37:25;;;;;;;4.03;2.80;;;;;;;;;;5075112;28;20108;-25
2023/08/18 08:39:51;;;;;;;3.78;2.28;;;;;;;;;;5074996;28;20028;-23
2023/08/18 08:42:18;;;;;;;3.58;2.35;;;;;;;;;;5057799;28;20497;-24
2023/08/18 08:44:44;;;;;;;5.57;2.85;;;;;;;;;;5056740;28;20459;-21
2023/08/18 08:47:11;;;;;;;7.43;3.63;;;;;;;;;;5074231;28;20025;-23
2023/08/18 08:49:39;;;;;;;3.90;2.60;;;;;;;;;;5074424;28;20024;-22
2023/08/18 08:52:10;;;;;;;6.32;3.17;;;;;;;;;;5074410;28;20024;-21
2023/08/18 08:54:36;;;;;;;;;;;;;;;;;;5074846;28;20024;-21
2023/08/18 08:57:04;;;;;;;6.47;3.25;;;;;;;;;;5074455;28;20243;-23
2023/08/18 08:59:30;;;;;;;4.80;2.58;;;;;;;;;;5074472;28;20078;-23
2023/08/18 09:01:56;;;;;;;4.78;2.97;;;;;;;;;;5074252;28;20035;-24
2023/08/18 09:04:23;;;;;;;4.68;3.28;;;;;;;;;;5073905;28;20490;-22
2023/08/18 09:06:49;;;;;;;3.45;3.00;;;;;;;;;;5074341;28;20024;-27
2023/08/18 09:09:18;;;;;;;5.35;3.88;;;;;;;;;;5074325;28;20028;-20
2023/08/18 09:11:47;;;;;;;7.18;2.97;;;;;;;;;;5073920;28;20033;-25
2023/08/18 09:14:14;;;;;;;4.70;3.20;;;;;;;;;;5074183;28;20035;-23
2023/08/18 09:16:42;;;;;;;3.92;2.55;;;;;;;;;;5074202;28;20351;-23
2023/08/18 09:19:11;;;;;;;5.00;3.22;;;;;;;;;;5073805;28;20024;-22
2023/08/18 09:21:37;;;;;;;7.38;3.95;;;;;;;;;;5056222;28;20017;-23
2023/08/18 09:24:05;;;;;;;5.65;2.83;;;;;;;;;;5073789;28;20025;-23
2023/08/18 09:26:31;;;;;;;5.10;2.92;;;;;;;;;;5074339;28;20382;-28
2023/08/18 09:28:57;;;;;;;4.90;3.17;;;;;;;;;;5074270;28;20029;-26
2023/08/18 09:31:23;;;;;;;11.30;4.07;;;;;;;;;;5073965;28;20025;-22
2023/08/18 09:33:52;;;;;;;5.22;3.10;;;;;;;;;;5074066;28;20029;-21
2023/08/18 09:36:19;;;;;;;12.18;3.50;;;;;;;;;;5056624;28;20024;-22
2023/08/18 09:38:46;;;;;;;3.30;3.00;;;;;;;;;;5074225;28;20111;-23
2023/08/18 09:41:13;;;;;;;6.82;2.65;;;;;;;;;;5074213;28;20025;-25
2023/08/18 09:43:41;;;;;;;7.50;3.38;;;;;;;;;;5074559;28;20114;-21
2023/08/18 09:46:08;;;;;;;6.32;3.78;;;;;;;;;;5074089;28;20451;-23
2023/08/18 09:48:35;;;;;;;5.65;3.40;;;;;;;;;;5056412;28;20039;-30
2023/08/18 09:51:02;;;;;;;4.55;3.22;;;;;;;;;;5074190;28;20078;-28
2023/08/18 09:53:30;;;;;;;7.57;4.20;;;;;;;;;;5073916;28;20044;-23
2023/08/18 09:56:06;;;;;;;4.40;3.47;;;;;;;;;;5074014;28;20020;-25
2023/08/18 09:58:35;;;;;;;7.32;3.15;;;;;;;;;;5078328;28;20078;-28
2023/08/18 10:01:02;;;;;;;5.00;3.45;;;;;;;;;;5060504;28;20029;-21
2023/08/18 10:03:30;;;;;;;3.63;3.30;;;;;;;;;;5077637;28;20033;-20
2023/08/18 10:05:56;;;;;;;6.97;3.33;;;;;;;;;;5078357;28;20029;-24
2023/08/18 10:08:23;;;;;;;6.35;3.80;;;;;;;;;;5060141;28;20036;-21
2023/08/18 10:10:50;;;;;;;5.13;3.15;;;;;;;;;;5077961;28;20049;-22
2023/08/18 10:13:17;;;;;;;4.30;3.92;;;;;;;;;;5077772;28;20367;-24
2023/08/18 10:15:43;;;;;;;6.53;2.90;;;;;;;;;;5077908;28;20020;-22
2023/08/18 10:18:11;;;;;;;7.88;3.20;;;;;;;;;;5077593;28;20020;-21
2023/08/18 10:20:48;;;;;;;7.80;3.30;;;;;;;;;;5077522;28;20107;-27
2023/08/18 10:23:15;;;;;;;5.63;4.22;;;;;;;;;;5077122;28;20032;-23
2023/08/18 10:25:43;;;;;;;4.28;3.40;;;;;;;;;;5077653;28;20380;-22
2023/08/18 10:28:10;;;;;;;4.72;3.15;;;;;;;;;;5060570;28;20119;-25
2023/08/18 10:30:36;;;;;;;5.38;3.55;;;;;;;;;;5077421;28;20046;-22
2023/08/18 10:33:07;;;;;;;5.93;3.42;;;;;;;;;;5077245;28;20036;-23
2023/08/18 10:35:33;;;;;;;8.05;3.42;;;;;;;;;;5060042;28;20364;-20
2023/08/18 10:38:01;;;;;;;5.45;4.03;;;;;;;;;;5060561;28;20067;-23
2023/08/18 10:40:31;;;;;;;4.38;3.78;;;;;;;;;;5077538;28;20414;-25
2023/08/18 10:42:59;;;;;;;7.68;3.97;;;;;;;;;;5077247;28;20029;-20
2023/08/18 10:45:29;;;;;;;5.70;4.40;;;;;;;;;;5059766;28;20035;-22
2023/08/18 10:48:03;;;;;;;4.53;3.60;;;;;;;;;;5077312;28;20040;-23
2023/08/18 10:50:34;;;;;;;5.35;3.88;;;;;;;;;;5077363;28;20358;-25
2023/08/18 10:53:01;;;;;;;4.53;4.07;;;;;;;;;;5077524;28;20032;-26
2023/08/18 10:55:30;;;;;;;3.90;3.60;;;;;;;;;;5077898;28;20301;-22
2023/08/18 10:57:56;;;;;;;4.95;3.42;;;;;;;;;;5077539;28;20025;-28
2023/08/18 11:00:23;;;;;;;7.72;4.28;;;;;;;;;;5076470;28;20028;-21
2023/08/18 11:02:50;;;;;;;4.32;3.33;;;;;;;;;;5076624;28;20020;-22
2023/08/18 11:05:23;;;;;;;7.20;4.47;;;;;;;;;;5076288;28;20372;-20
2023/08/18 11:07:52;;;;;;;4.35;3.88;;;;;;;;;;5075666;28;20024;-23
2023/08/18 11:10:19;;;;;;;7.78;3.72;;;;;;;;;;5076365;28;20100;-21
2023/08/18 11:12:47;;;;;;;5.78;4.18;;;;;;;;;;5058477;28;20478;-21
2023/08/18 11:15:13;;;;;;;6.05;4.65;;;;;;;;;;5076325;28;20462;-21
2023/08/18 11:17:40;;;;;;;5.43;4.68;;;;;;;;;;5076184;28;20048;-24
2023/08/18 11:20:07;;;;;;;5.10;3.88;;;;;;;;;;5076057;28;20029;-28
2023/08/18 11:22:36;;;;;;;4.40;4.10;;;;;;;;;;5076346;28;20448;-24
2023/08/18 11:25:04;;;;;;;5.28;4.78;;;;;;;;;;5076674;28;20038;-22
2023/08/18 11:27:31;;;;;;;14.25;4.57;;;;;;;;;;5076487;28;20080;-23
2023/08/18 11:29:58;;;;;;;7.03;3.95;;;;;;;;;;5076862;28;20098;-20
2023/08/18 11:32:24;;;;;;;6.43;4.22;;;;;;;;;;5076010;28;20017;-25
2023/08/18 11:34:51;;;;;;;7.20;4.60;;;;;;;;;;5058296;28;20029;-21
2023/08/18 11:37:20;;;;;;;5.28;4.15;;;;;;;;;;5076050;28;20051;-26
2023/08/18 11:39:48;;;;;;;4.60;4.30;;;;;;;;;;5075756;28;20021;-23
2023/08/18 11:42:14;;;;;;;7.57;4.60;;;;;;;;;;5058930;28;20020;-24
2023/08/18 11:44:41;;;;;;;5.72;4.25;;;;;;;;;;5075781;28;20035;-26
2023/08/18 11:47:08;;;;;;;5.00;3.90;;;;;;;;;;5076535;28;20032;-24
2023/08/18 11:49:35;;;;;;;9.65;4.70;;;;;;;;;;5076741;28;20039;-23
2023/08/18 11:52:05;;;;;;;5.45;4.90;;;;;;;;;;5058067;28;20024;-26
2023/08/18 11:54:35;;;;;;;5.03;4.53;;;;;;;;;;5075493;28;20039;-27
2023/08/18 11:57:02;;;;;;;6.43;5.60;;;;;;;;;;5075544;28;20024;-30
2023/08/18 11:59:29;;;;;;;5.10;4.60;;;;;;;;;;5075564;28;20032;-24
2023/08/18 12:02:04;;;;;;;9.02;5.10;;;;;;;;;;5075627;28;20119;-27
2023/08/18 12:04:31;;;;;;;5.75;5.22;;;;;;;;;;5075550;28;20106;-25
2023/08/18 12:06:57;;;;;;;10.18;5.30;;;;;;;;;;5075410;28;20036;-21
2023/08/18 12:09:24;;;;;;;7.78;5.75;;;;;;;;;;5075436;28;20081;-27
2023/08/18 12:11:51;;;;;;;6.95;4.97;;;;;;;;;;5075190;28;20058;-23
2023/08/18 12:14:17;;;;;;;8.05;4.72;;;;;;;;;;5075398;28;20037;-27
2023/08/18 12:16:43;;;;;;;7.20;5.80;;;;;;;;;;5075162;28;20024;-24
2023/08/18 12:19:10;;;;;;;6.18;4.47;;;;;;;;;;5075793;28;20297;-23
2023/08/18 12:21:36;;;;;;;8.30;5.78;;;;;;;;;;5075064;28;20025;-24
2023/08/18 12:24:06;;;;;;;16.10;6.07;;;;;;;;;;5074980;28;20466;-23
2023/08/18 12:26:32;;;;;;;8.77;5.30;;;;;;;;;;5057373;28;20048;-28
2023/08/18 12:29:01;;;;;;;6.22;4.90;;;;;;;;;;5075356;28;20031;-31
2023/08/18 12:31:27;;;;;;;8.65;6.20;;;;;;;;;;5075909;28;20028;-22
2023/08/18 12:33:58;;;;;;;6.65;5.97;;;;;;;;;;5074913;28;20040;-29
2023/08/18 12:36:25;;;;;;;6.07;5.57;;;;;;;;;;5074941;28;20345;-25
2023/08/18 12:38:51;;;;;;;6.85;6.15;;;;;;;;;;5075035;28;20028;-27
2023/08/18 12:41:17;;;;;;;6.35;5.60;;;;;;;;;;5074759;28;20036;-28
2023/08/18 12:43:43;;;;;;;7.95;5.63;;;;;;;;;;5075046;28;20028;-23
2023/08/18 12:46:09;;;;;;;12.23;5.65;;;;;;;;;;5056923;28;20036;-25
2023/08/18 12:48:36;;;;;;;20.15;7.35;;;;;;;;;;5074704;28;20409;-25
2023/08/18 12:51:02;;;;;;;6.93;5.68;;;;;;;;;;5074621;28;20028;-23
2023/08/18 12:53:28;;;;;;;6.65;6.15;;;;;;;;;;5074692;28;20103;-24
2023/08/18 12:55:55;;;;;;;7.70;5.53;;;;;;;;;;5074769;28;20104;-23
2023/08/18 12:58:21;;;;;;;16.67;5.72;;;;;;;;;;5075041;28;20020;-25
2023/08/18 13:00:47;;;;;;;5.85;5.35;;;;;;;;;;5074711;28;20046;-26
2023/08/18 13:03:13;;;;;;;16.63;6.45;;;;;;;;;;5074615;28;20459;-24
2023/08/18 13:05:39;;;;;;;6.22;5.68;;;;;;;;;;5074335;28;20044;-22
2023/08/18 13:08:06;;;;;;;6.63;5.68;;;;;;;;;;5056693;28;20028;-21
2023/08/18 13:10:32;;;;;;;6.57;6.00;;;;;;;;;;5074382;28;20021;-23
2023/08/18 13:12:58;;;;;;;6.85;6.15;;;;;;;;;;5073898;28;20103;-25
2023/08/18 13:15:25;;;;;;;7.03;6.25;;;;;;;;;;5074272;28;20089;-26
2023/08/18 13:17:52;;;;;;;9.75;5.85;;;;;;;;;;5056857;28;20050;-26
2023/08/18 13:20:19;;;;;;;9.80;6.22;;;;;;;;;;5074044;28;20027;-22
2023/08/18 13:22:45;;;;;;;9.18;6.38;;;;;;;;;;5073801;28;20386;-27
2023/08/18 13:25:12;;;;;;;6.20;5.80;;;;;;;;;;5073973;28;20043;-23
2023/08/18 13:27:42;;;;;;;8.70;6.32;;;;;;;;;;5056985;28;20017;-31
2023/08/18 13:30:09;;;;;;;7.90;6.15;;;;;;;;;;5074575;28;20021;-24
2023/08/18 13:32:36;;;;;;;7.07;6.32;;;;;;;;;;5073301;28;20355;-26
2023/08/18 13:35:02;;;;;;;7.00;6.43;;;;;;;;;;5074078;28;20471;-24
2023/08/18 13:37:28;;;;;;;10.85;5.65;;;;;;;;;;5073984;28;20025;-26
2023/08/18 13:39:54;;;;;;;7.38;6.68;;;;;;;;;;5073838;28;20027;-23
2023/08/18 13:42:24;;;;;;;8.85;5.72;;;;;;;;;;5073997;28;20075;-24
2023/08/18 13:44:50;;;;;;;8.65;6.68;;;;;;;;;;5074260;28;20024;-32
2023/08/18 13:47:16;;;;;;;7.40;6.15;;;;;;;;;;5074074;28;20024;-23
2023/08/18 13:49:43;;;;;;;7.28;6.63;;;;;;;;;;5074166;28;20104;-26
2023/08/18 13:52:09;;;;;;;9.20;5.88;;;;;;;;;;5073474;28;20111;-24
2023/08/18 13:54:35;;;;;;;10.57;8.00;;;;;;;;;;5073403;28;20040;-24
2023/08/18 13:57:01;;;;;;;8.07;6.70;;;;;;;;;;5073476;28;20078;-20
2023/08/18 13:59:28;;;;;;;9.43;6.68;;;;;;;;;;5073746;28;20021;-20
2023/08/18 14:01:54;;;;;;;8.18;6.15;;;;;;;;;;5055878;28;20098;-24
2023/08/18 14:04:20;;;;;;;7.10;5.97;;;;;;;;;;5073507;28;20367;-22
2023/08/18 14:06:46;;;;;;;23.73;8.43;;;;;;;;;;5074091;28;20036;-25
2023/08/18 14:09:13;;;;;;;11.88;6.57;;;;;;;;;;5074085;28;20466;-24
2023/08/18 14:11:40;;;;;;;11.40;6.53;;;;;;;;;;5073653;28;20058;-22
2023/08/18 14:14:06;;;;;;;11.82;6.88;;;;;;;;;;5073708;28;20052;-23
2023/08/18 14:16:32;;;;;;;11.70;7.38;;;;;;;;;;5055975;28;20024;-25
2023/08/18 14:18:58;;;;;;;6.60;5.72;;;;;;;;;;5073735;28;20021;-32
2023/08/18 14:21:25;;;;;;;7.93;6.65;;;;;;;;;;5073575;28;20462;-24
2023/08/18 14:23:51;;;;;;;9.35;7.35;;;;;;;;;;5073606;28;20359;-23
2023/08/18 14:26:20;;;;;;;7.38;6.72;;;;;;;;;;5073976;28;20026;-24
2023/08/18 14:28:46;;;;;;;10.27;6.70;;;;;;;;;;5073874;28;20024;-21
2023/08/18 14:31:13;;;;;;;7.32;6.82;;;;;;;;;;5055969;28;20413;-27
2023/08/18 14:33:39;;;;;;;10.35;6.40;;;;;;;;;;5073679;28;20447;-26
2023/08/18 14:36:06;;;;;;;7.32;6.72;;;;;;;;;;5073618;28;20315;-23
2023/08/18 14:38:32;;;;;;;9.48;7.45;;;;;;;;;;5055798;28;20055;-21
2023/08/18 14:40:58;;;;;;;13.43;7.35;;;;;;;;;;5073609;28;20084;-24